Time;durP1;ratioP1;P1;durP2;ratioP2;P2;SDS_P1;SDS_P2;PMS_P1;PMS_P2;Temp;Humidity;BMP_temperature;BMP_pressure;BME280_temperature;BME280_humidity;BME280_pressure;Samples;Min_cycle;Max_cycle;Signal;HPM_P1;HPM_P2
2021/09/23 00:00:28;;;;;;;;;;;;;;;;;;5093196;28;19924;-76
2021/09/23 00:03:13;;;;;;;;;;;;;;;;;;5093285;28;19932;-76
2021/09/23 00:05:40;;;;;;;;;;;;;;;;;;5093476;28;20003;-76
2021/09/23 00:08:06;;;;;;;;;;;;;;;;;;5093263;28;20462;-75
2021/09/23 00:10:33;;;;;;;;;;;;;;;;;;5092927;28;19934;-76
2021/09/23 00:13:00;;;;;;;;;;;;;;;;;;5093006;28;19974;-76
2021/09/23 00:15:26;;;;;;;;;;;;;;;;;;5093408;28;19924;-75
2021/09/23 00:17:52;;;;;;;;;;;;;;;;;;5093186;28;19950;-76
2021/09/23 00:20:19;;;;;;;;;;;;;;;;;;5092997;28;19925;-76
2021/09/23 00:22:45;;;;;;;;;;;;;;;;;;5093331;28;19930;-76
2021/09/23 00:25:11;;;;;;;;;;;;;;;;;;5092802;28;19946;-76
2021/09/23 00:27:37;;;;;;;;;;;;;;;;;;5092647;28;19931;-75
2021/09/23 00:30:04;;;;;;;;;;;;;;;;;;5092952;28;19924;-75
2021/09/23 00:32:30;;;;;;;;;;;;;;;;;;5092891;28;19924;-75
2021/09/23 00:34:56;;;;;;;;;;;;;;;;;;5092553;28;19924;-75
2021/09/23 00:37:23;;;;;;;;;;;;;;;;;;5092534;28;19928;-75
2021/09/23 00:39:49;;;;;;;;;;;;;;;;;;5092831;28;20345;-76
2021/09/23 00:42:15;;;;;;;;;;;;;;;;;;5092766;28;20373;-76
2021/09/23 00:44:42;;;;;;;;;;;;;;;;;;5092501;28;19932;-76
2021/09/23 00:47:09;;;;;;;;;;;;;;;;;;5093025;28;20019;-76
2021/09/23 00:49:35;;;;;;;;;;;;;;;;;;5092530;28;19967;-76
2021/09/23 00:52:02;;;;;;;;;;;;;;;;;;5092709;28;19924;-76
2021/09/23 00:54:28;;;;;;;;;;;;;;;;;;5092603;28;19925;-76
2021/09/23 00:56:54;;;;;;;;;;;;;;;;;;5092828;28;19930;-76
2021/09/23 00:59:21;;;;;;;;;;;;;;;;;;5092468;28;20378;-77
2021/09/23 01:01:47;;;;;;;;;;;;;;;;;;5092575;28;19928;-77
2021/09/23 01:04:13;;;;;;;;;;;;;;;;;;5092823;28;19928;-77
2021/09/23 01:06:39;;;;;;;;;;;;;;;;;;5092295;28;19924;-77
2021/09/23 01:09:06;;;;;;;;;;;;;;;;;;5092682;28;19924;-77
2021/09/23 01:11:32;;;;;;;;;;;;;;;;;;5092570;28;19931;-77
2021/09/23 01:13:58;;;;;;;;;;;;;;;;;;5092394;28;19932;-77
2021/09/23 01:16:25;;;;;;;;;;;;;;;;;;5092420;28;19930;-77
2021/09/23 01:18:51;;;;;;;;;;;;;;;;;;5092466;28;19931;-76
2021/09/23 01:21:17;;;;;;;;;;;;;;;;;;5092608;28;20386;-76
2021/09/23 01:23:44;;;;;;;;;;;;;;;;;;5092227;28;19931;-76
2021/09/23 01:26:10;;;;;;;;;;;;;;;;;;5105768;28;19913;-76
2021/09/23 01:28:36;;;;;;;;;;;;;;;;;;5103350;28;19935;-76
2021/09/23 01:31:02;;;;;;;;;;;;;;;;;;5095516;28;19924;-76
2021/09/23 01:33:29;;;;;;;;;;;;;;;;;;5092544;28;19925;-77
2021/09/23 01:35:55;;;;;;;;;;;;;;;;;;5092507;28;19924;-76
2021/09/23 01:38:21;;;;;;;;;;;;;;;;;;5092068;28;19930;-78
2021/09/23 01:40:48;;;;;;;;;;;;;;;;;;5092046;28;19924;-76
2021/09/23 01:43:14;;;;;;;;;;;;;;;;;;5092586;28;19951;-78
2021/09/23 01:45:40;;;;;;;;;;;;;;;;;;5092088;28;20374;-78
2021/09/23 01:48:07;;;;;;;;;;;;;;;;;;5096034;28;19931;-77
2021/09/23 01:50:33;;;;;;;;;;;;;;;;;;5096278;28;19923;-77
2021/09/23 01:52:59;;;;;;;;;;;;;;;;;;5095817;28;20499;-77
2021/09/23 01:55:25;;;;;;;;;;;;;;;;;;5096096;28;19931;-78
2021/09/23 01:57:52;;;;;;;;;;;;;;;;;;5095938;28;19947;-77
2021/09/23 02:00:18;;;;;;;;;;;;;;;;;;5096867;28;19928;-76
2021/09/23 02:02:45;;;;;;;;;;;;;;;;;;5095881;28;19928;-77
2021/09/23 02:05:11;;;;;;;;;;;;;;;;;;5096287;28;20317;-77
2021/09/23 02:07:37;;;;;;;;;;;;;;;;;;5095579;28;19931;-77
2021/09/23 02:10:03;;;;;;;;;;;;;;;;;;5095905;28;19939;-77
2021/09/23 02:12:30;;;;;;;;;;;;;;;;;;5095257;28;19924;-78
2021/09/23 02:14:56;;;;;;;;;;;;;;;;;;5095501;28;19924;-77
2021/09/23 02:17:22;;;;;;;;;;;;;;;;;;5095649;28;19924;-77
2021/09/23 02:19:49;;;;;;;;;;;;;;;;;;5095189;28;19924;-77
2021/09/23 02:22:15;;;;;;;;;;;;;;;;;;5095376;28;19928;-77
2021/09/23 02:24:41;;;;;;;;;;;;;;;;;;5095007;28;19931;-76
2021/09/23 02:27:08;;;;;;;;;;;;;;;;;;5095247;28;20420;-76
2021/09/23 02:29:35;;;;;;;;;;;;;;;;;;5094808;28;19928;-77
2021/09/23 02:32:01;;;;;;;;;;;;;;;;;;5095412;28;19924;-76
2021/09/23 02:34:27;;;;;;;;;;;;;;;;;;5095019;28;20528;-77
2021/09/23 02:36:53;;;;;;;;;;;;;;;;;;5094775;28;19938;-77
2021/09/23 02:39:20;;;;;;;;;;;;;;;;;;5095101;28;19924;-77
2021/09/23 02:41:46;;;;;;;;;;;;;;;;;;5094718;28;20401;-77
2021/09/23 02:44:12;;;;;;;;;;;;;;;;;;5095108;28;19924;-77
2021/09/23 02:46:39;;;;;;;;;;;;;;;;;;5094925;28;19931;-77
2021/09/23 02:49:05;;;;;;;;;;;;;;;;;;5094729;28;19935;-76
2021/09/23 02:51:31;;;;;;;;;;;;;;;;;;5094604;28;19924;-76
2021/09/23 02:53:58;;;;;;;;;;;;;;;;;;5095014;28;19924;-77
2021/09/23 02:56:24;;;;;;;;;;;;;;;;;;5095027;28;19993;-77
2021/09/23 02:58:51;;;;;;;;;;;;;;;;;;5093765;28;20304;-76
2021/09/23 03:01:17;;;;;;;;;;;;;;;;;;5094632;28;19924;-77
2021/09/23 03:03:43;;;;;;;;;;;;;;;;;;5094314;28;19924;-77
2021/09/23 03:06:10;;;;;;;;;;;;;;;;;;5094795;28;19931;-77
2021/09/23 03:08:36;;;;;;;;;;;;;;;;;;5094130;28;19924;-77
2021/09/23 03:11:02;;;;;;;;;;;;;;;;;;5094277;28;19924;-77
2021/09/23 03:13:28;;;;;;;;;;;;;;;;;;5094709;28;19931;-77
2021/09/23 03:15:55;;;;;;;;;;;;;;;;;;5094766;28;19928;-77
2021/09/23 03:18:21;;;;;;;;;;;;;;;;;;5094209;28;19924;-77
2021/09/23 03:20:47;;;;;;;;;;;;;;;;;;5093593;28;19928;-77
2021/09/23 03:23:14;;;;;;;;;;;;;;;;;;5094025;28;20366;-76
2021/09/23 03:25:40;;;;;;;;;;;;;;;;;;5093685;28;19924;-76
2021/09/23 03:28:06;;;;;;;;;;;;;;;;;;5094197;28;19975;-77
2021/09/23 03:30:34;;;;;;;;;;;;;;;;;;5093504;28;20390;-76
2021/09/23 03:33:01;;;;;;;;;;;;;;;;;;5093932;28;19998;-77
2021/09/23 03:35:27;;;;;;;;;;;;;;;;;;5094158;28;19930;-76
2021/09/23 03:37:53;;;;;;;;;;;;;;;;;;5093606;28;20526;-77
2021/09/23 03:40:20;;;;;;;;;;;;;;;;;;5093726;28;19931;-77
2021/09/23 03:42:46;;;;;;;;;;;;;;;;;;5094946;28;19947;-77
2021/09/23 03:45:12;;;;;;;;;;;;;;;;;;5093497;28;19930;-77
2021/09/23 03:47:39;;;;;;;;;;;;;;;;;;5093632;28;19924;-77
2021/09/23 03:50:05;;;;;;;;;;;;;;;;;;5093625;28;20387;-77
2021/09/23 03:52:31;;;;;;;;;;;;;;;;;;5093638;28;19931;-77
2021/09/23 03:54:57;;;;;;;;;;;;;;;;;;5093748;28;20036;-77
2021/09/23 03:57:25;;;;;;;;;;;;;;;;;;5093179;28;19924;-77
2021/09/23 03:59:52;;;;;;;;;;;;;;;;;;5093421;28;20073;-76
2021/09/23 04:02:18;;;;;;;;;;;;;;;;;;5093945;28;19924;-77
2021/09/23 04:04:44;;;;;;;;;;;;;;;;;;5094292;28;19931;-77
2021/09/23 04:07:10;;;;;;;;;;;;;;;;;;5093255;28;20286;-77
2021/09/23 04:09:37;;;;;;;;;;;;;;;;;;5092948;28;19924;-77
2021/09/23 04:12:03;;;;;;;;;;;;;;;;;;5093444;28;19931;-77
2021/09/23 04:14:29;;;;;;;;;;;;;;;;;;5094077;28;19931;-77
2021/09/23 04:16:56;;;;;;;;;;;;;;;;;;5093139;28;20428;-77
2021/09/23 04:19:22;;;;;;;;;;;;;;;;;;5093432;28;19924;-77
2021/09/23 04:21:48;;;;;;;;;;;;;;;;;;5093111;28;19930;-77
2021/09/23 04:24:15;;;;;;;;;;;;;;;;;;5093244;28;19931;-77
2021/09/23 04:26:41;;;;;;;;;;;;;;;;;;5093128;28;19930;-77
2021/09/23 04:29:07;;;;;;;;;;;;;;;;;;5093857;28;19924;-77
2021/09/23 04:31:33;;;;;;;;;;;;;;;;;;5093036;28;19925;-77
2021/09/23 04:34:00;;;;;;;;;;;;;;;;;;5093611;28;19938;-77
2021/09/23 04:36:26;;;;;;;;;;;;;;;;;;5093199;28;19928;-77
2021/09/23 04:38:52;;;;;;;;;;;;;;;;;;5092553;28;19924;-77
2021/09/23 04:41:19;;;;;;;;;;;;;;;;;;5092993;28;19932;-77
2021/09/23 04:43:46;;;;;;;;;;;;;;;;;;5092819;28;20278;-77
2021/09/23 04:46:12;;;;;;;;;;;;;;;;;;5093170;28;20263;-77
2021/09/23 04:48:39;;;;;;;;;;;;;;;;;;5092649;28;19924;-77
2021/09/23 04:51:05;;;;;;;;;;;;;;;;;;5093073;28;19924;-77
2021/09/23 04:53:31;;;;;;;;;;;;;;;;;;5092713;28;20425;-77
2021/09/23 04:55:58;;;;;;;;;;;;;;;;;;5092798;28;19931;-76
2021/09/23 04:58:24;;;;;;;;;;;;;;;;;;5092822;28;19931;-76
2021/09/23 05:00:50;;;;;;;;;;;;;;;;;;5092179;28;20434;-77
2021/09/23 05:03:18;;;;;;;;;;;;;;;;;;5092806;28;19928;-77
2021/09/23 05:05:44;;;;;;;;;;;;;;;;;;5092555;28;19924;-77
2021/09/23 05:08:11;;;;;;;;;;;;;;;;;;5092394;28;20405;-77
2021/09/23 05:10:37;;;;;;;;;;;;;;;;;;5092196;28;19924;-77
2021/09/23 05:13:03;;;;;;;;;;;;;;;;;;5092952;28;19925;-77
2021/09/23 05:15:30;;;;;;;;;;;;;;;;;;5093435;28;20386;-77
2021/09/23 05:17:56;;;;;;;;;;;;;;;;;;5092482;28;20094;-77
2021/09/23 05:20:22;;;;;;;;;;;;;;;;;;5092799;28;19931;-76
2021/09/23 05:22:48;;;;;;;;;;;;;;;;;;5094673;28;19924;-75
2021/09/23 05:25:15;;;;;;;;;;;;;;;;;;5096140;28;20408;-73
2021/09/23 05:27:41;;;;;;;;;;;;;;;;;;5095826;28;19930;-73
2021/09/23 05:30:07;;;;;;;;;;;;;;;;;;5096392;28;19931;-73
2021/09/23 05:32:34;;;;;;;;;;;;;;;;;;5095774;28;20401;-73
2021/09/23 05:35:00;;;;;;;;;;;;;;;;;;5096680;28;19931;-72
2021/09/23 05:37:26;;;;;;;;;;;;;;;;;;5098337;28;19935;-73
2021/09/23 05:39:53;;;;;;;;;;;;;;;;;;5095784;28;20386;-75
2021/09/23 05:42:19;;;;;;;;;;;;;;;;;;5095776;28;19924;-74
2021/09/23 05:44:45;;;;;;;;;;;;;;;;;;5095856;28;19924;-74
2021/09/23 05:47:11;;;;;;;;;;;;;;;;;;5095565;28;20294;-74
2021/09/23 05:49:38;;;;;;;;;;;;;;;;;;5095399;28;19924;-74
2021/09/23 05:52:04;;;;;;;;;;;;;;;;;;5095274;28;20259;-78
2021/09/23 05:54:30;;;;;;;;;;;;;;;;;;5094751;28;19924;-77
2021/09/23 05:56:57;;;;;;;;;;;;;;;;;;5095479;28;20018;-78
2021/09/23 05:59:26;;;;;;;;;;;;;;;;;;5095763;28;19930;-71
2021/09/23 06:01:54;;;;;;;;;;;;;;;;;;5095062;28;19931;-69
2021/09/23 06:04:20;;;;;;;;;;;;;;;;;;5095592;28;20015;-70
2021/09/23 06:06:47;;;;;;;;;;;;;;;;;;5094938;28;19934;-70
2021/09/23 06:09:13;;;;;;;;;;;;;;;;;;5095640;28;19928;-69
2021/09/23 06:11:39;;;;;;;;;;;;;;;;;;5095342;28;19924;-70
2021/09/23 06:14:06;;;;;;;;;;;;;;;;;;5095298;28;19924;-70
2021/09/23 06:16:32;;;;;;;;;;;;;;;;;;5095282;28;19932;-71
2021/09/23 06:18:58;;;;;;;;;;;;;;;;;;5095262;28;19924;-70
2021/09/23 06:21:25;;;;;;;;;;;;;;;;;;5096018;28;19924;-73
2021/09/23 06:23:51;;;;;;;;;;;;;;;;;;5094929;28;19928;-71
2021/09/23 06:26:19;;;;;;;;;;;;;;;;;;5095012;28;20404;-71
2021/09/23 06:28:45;;;;;;;;;;;;;;;;;;5094746;28;19928;-72
2021/09/23 06:31:11;;;;;;;;;;;;;;;;;;5095354;28;19931;-71
2021/09/23 06:33:38;;;;;;;;;;;;;;;;;;5093492;28;20378;-72
2021/09/23 06:36:04;;;;;;;;;;;;;;;;;;5095193;28;19924;-72
2021/09/23 06:38:30;;;;;;;;;;;;;;;;;;5094887;28;19924;-72
2021/09/23 06:40:57;;;;;;;;;;;;;;;;;;5094860;28;19928;-72
2021/09/23 06:43:23;;;;;;;;;;;;;;;;;;5095038;28;19931;-72
2021/09/23 06:45:49;;;;;;;;;;;;;;;;;;5094408;28;20302;-72
2021/09/23 06:48:15;;;;;;;;;;;;;;;;;;5094653;28;19930;-72
2021/09/23 06:50:42;;;;;;;;;;;;;;;;;;5094711;28;19931;-72
2021/09/23 06:53:08;;;;;;;;;;;;;;;;;;5094611;28;19924;-73
2021/09/23 06:55:34;;;;;;;;;;;;;;;;;;5094247;28;19924;-72
2021/09/23 06:58:01;;;;;;;;;;;;;;;;;;5094535;28;20306;-73
2021/09/23 07:00:27;;;;;;;;;;;;;;;;;;5094474;28;19935;-73
2021/09/23 07:02:54;;;;;;;;;;;;;;;;;;5094445;28;19969;-72
2021/09/23 07:05:20;;;;;;;;;;;;;;;;;;5094680;28;19924;-71
2021/09/23 07:07:46;;;;;;;;;;;;;;;;;;5094075;28;19924;-72
2021/09/23 07:10:13;;;;;;;;;;;;;;;;;;5094645;28;19931;-72
2021/09/23 07:12:39;;;;;;;;;;;;;;;;;;5093951;28;19924;-71
2021/09/23 07:15:05;;;;;;;;;;;;;;;;;;5094409;28;19924;-71
2021/09/23 07:17:33;;;;;;;;;;;;;;;;;;5093878;28;20402;-71
2021/09/23 07:19:59;;;;;;;;;;;;;;;;;;5094424;28;19924;-71
2021/09/23 07:22:25;;;;;;;;;;;;;;;;;;5094168;28;19924;-71
2021/09/23 07:24:52;;;;;;;;;;;;;;;;;;5093445;28;20375;-72
2021/09/23 07:27:18;;;;;;;;;;;;;;;;;;5093853;28;19949;-72
2021/09/23 07:29:44;;;;;;;;;;;;;;;;;;5093978;28;19924;-71
2021/09/23 07:32:11;;;;;;;;;;;;;;;;;;5093798;28;19924;-72
2021/09/23 07:34:37;;;;;;;;;;;;;;;;;;5093589;28;20189;-72
2021/09/23 07:37:04;;;;;;;;;;;;;;;;;;5093598;28;19924;-73
2021/09/23 07:39:31;;;;;;;;;;;;;;;;;;5093540;28;20416;-72
2021/09/23 07:41:57;;;;;;;;;;;;;;;;;;5093913;28;19924;-70
2021/09/23 07:44:24;;;;;;;;;;;;;;;;;;5093371;28;20286;-72
2021/09/23 07:46:51;;;;;;;;;;;;;;;;;;5093332;28;20374;-71
2021/09/23 07:49:18;;;;;;;;;;;;;;;;;;5093740;28;19931;-72
2021/09/23 07:51:45;;;;;;;;;;;;;;;;;;5093131;28;19936;-71
2021/09/23 07:54:11;;;;;;;;;;;;;;;;;;5093720;28;19930;-70
2021/09/23 07:56:37;;;;;;;;;;;;;;;;;;5093555;28;19928;-70
2021/09/23 07:59:03;;;;;;;;;;;;;;;;;;5093257;28;19931;-69
2021/09/23 08:01:30;;;;;;;;;;;;;;;;;;5093553;28;19930;-70
2021/09/23 08:03:56;;;;;;;;;;;;;;;;;;5093497;28;19946;-71
2021/09/23 08:06:22;;;;;;;;;;;;;;;;;;5093232;28;19924;-71
2021/09/23 08:08:49;;;;;;;;;;;;;;;;;;5093052;28;19924;-71
2021/09/23 08:11:15;;;;;;;;;;;;;;;;;;5093472;28;19924;-71
2021/09/23 08:13:41;;;;;;;;;;;;;;;;;;5092829;28;19924;-71
2021/09/23 08:16:08;;;;;;;;;;;;;;;;;;5093308;28;19936;-71
2021/09/23 08:18:34;;;;;;;;;;;;;;;;;;5092852;28;20219;-72
2021/09/23 08:21:00;;;;;;;;;;;;;;;;;;5093005;28;19924;-72
2021/09/23 08:23:26;;;;;;;;;;;;;;;;;;5092915;28;19924;-72
2021/09/23 08:25:53;;;;;;;;;;;;;;;;;;5092612;28;20388;-72
2021/09/23 08:28:23;;;;;;;;;;;;;;;;;;5092854;28;19931;-72
2021/09/23 08:30:49;;;;;;;;;;;;;;;;;;5092877;28;19924;-72
2021/09/23 08:33:16;;;;;;;;;;;;;;;;;;5093177;28;19928;-72
2021/09/23 08:35:42;;;;;;;;;;;;;;;;;;5092356;28;20393;-71
2021/09/23 08:38:08;;;;;;;;;;;;;;;;;;5092771;28;19928;-72
2021/09/23 08:40:34;;;;;;;;;;;;;;;;;;5092812;28;19931;-72
2021/09/23 08:43:01;;;;;;;;;;;;;;;;;;5092598;28;19969;-72
2021/09/23 08:45:27;;;;;;;;;;;;;;;;;;5092612;28;19959;-71
2021/09/23 08:47:53;;;;;;;;;;;;;;;;;;5092655;28;19924;-72
2021/09/23 08:50:20;;;;;;;;;;;;;;;;;;5092538;28;20332;-72
2021/09/23 08:52:46;;;;;;;;;;;;;;;;;;5092236;28;19924;-72
2021/09/23 08:55:12;;;;;;;;;;;;;;;;;;5092620;28;19930;-73
2021/09/23 08:57:39;;;;;;;;;;;;;;;;;;5091982;28;20027;-72
2021/09/23 09:00:05;;;;;;;;;;;;;;;;;;5092471;28;20404;-72
2021/09/23 09:02:31;;;;;;;;;;;;;;;;;;5092271;28;19924;-72
2021/09/23 09:04:58;;;;;;;;;;;;;;;;;;5092766;28;19924;-72
2021/09/23 09:07:27;;;;;;;;;;;;;;;;;;5092424;28;20378;-72
2021/09/23 09:09:53;;;;;;;;;;;;;;;;;;5092346;28;19925;-73
2021/09/23 09:12:20;;;;;;;;;;;;;;;;;;5092451;28;19932;-73
2021/09/23 09:14:46;;;;;;;;;;;;;;;;;;5092131;28;19931;-72
2021/09/23 09:17:12;;;;;;;;;;;;;;;;;;5092585;28;19924;-72
2021/09/23 09:19:39;;;;;;;;;;;;;;;;;;5091940;28;20382;-72
2021/09/23 09:22:05;;;;;;;;;;;;;;;;;;5092065;28;19924;-73
2021/09/23 09:24:31;;;;;;;;;;;;;;;;;;5091951;28;19924;-72
2021/09/23 09:26:57;;;;;;;;;;;;;;;;;;5092124;28;20437;-72
2021/09/23 09:29:24;;;;;;;;;;;;;;;;;;5092279;28;19924;-72
2021/09/23 09:31:50;;;;;;;;;;;;;;;;;;5092236;28;20340;-73
2021/09/23 09:34:17;;;;;;;;;;;;;;;;;;5093135;28;19924;-73
2021/09/23 09:36:48;;;;;;;;;;;;;;;;;;5093553;28;20321;-73
2021/09/23 09:39:14;;;;;;;;;;;;;;;;;;5101139;28;20337;-73
2021/09/23 09:41:41;;;;;;;;;;;;;;;;;;5102654;28;19931;-73
2021/09/23 09:44:09;;;;;;;;;;;;;;;;;;5097916;28;19924;-73
2021/09/23 09:46:35;;;;;;;;;;;;;;;;;;5092001;28;19973;-73
2021/09/23 09:49:01;;;;;;;;;;;;;;;;;;5092358;28;19931;-73
2021/09/23 09:51:28;;;;;;;;;;;;;;;;;;5092268;28;19924;-73
2021/09/23 09:53:54;;;;;;;;;;;;;;;;;;5091766;28;19930;-73
2021/09/23 09:56:20;;;;;;;;;;;;;;;;;;5092345;28;20029;-73
2021/09/23 09:58:47;;;;;;;;;;;;;;;;;;5091710;28;19931;-72
2021/09/23 10:01:13;;;;;;;;;;;;;;;;;;5091960;28;20015;-73
2021/09/23 10:03:39;;;;;;;;;;;;;;;;;;5091786;28;19936;-72
2021/09/23 10:06:05;;;;;;;;;;;;;;;;;;5091914;28;20406;-73
2021/09/23 10:08:32;;;;;;;;;;;;;;;;;;5093218;28;19924;-73
2021/09/23 10:10:58;;;;;;;;;;;;;;;;;;5095697;28;19930;-73
2021/09/23 10:13:24;;;;;;;;;;;;;;;;;;5095329;28;19924;-73
2021/09/23 10:15:51;;;;;;;;;;;;;;;;;;5095529;28;19928;-73
2021/09/23 10:18:17;;;;;;;;;;;;;;;;;;5095765;28;19930;-73
2021/09/23 10:20:44;;;;;;;;;;;;;;;;;;5094984;28;20298;-72
2021/09/23 10:23:11;;;;;;;;;;;;;;;;;;5095126;28;19924;-73
2021/09/23 10:25:37;;;;;;;;;;;;;;;;;;5094865;28;19971;-72
2021/09/23 10:28:04;;;;;;;;;;;;;;;;;;5095275;28;19924;-73
2021/09/23 10:30:30;;;;;;;;;;;;;;;;;;5094938;28;19950;-72
2021/09/23 10:32:57;;;;;;;;;;;;;;;;;;5095408;28;19924;-71
2021/09/23 10:35:23;;;;;;;;;;;;;;;;;;5096927;28;19924;-72
2021/09/23 10:37:50;;;;;;;;;;;;;;;;;;5095068;28;19947;-72
2021/09/23 10:40:17;;;;;;;;;;;;;;;;;;5094824;28;19931;-72
2021/09/23 10:42:43;;;;;;;;;;;;;;;;;;5094818;28;19930;-72
2021/09/23 10:45:10;;;;;;;;;;;;;;;;;;5094783;28;20447;-73
2021/09/23 10:47:36;;;;;;;;;;;;;;;;;;5094502;28;19931;-72
2021/09/23 10:50:02;;;;;;;;;;;;;;;;;;5094900;28;19931;-73
2021/09/23 10:52:30;;;;;;;;;;;;;;;;;;5094721;28;19931;-73
2021/09/23 10:54:57;;;;;;;;;;;;;;;;;;5094808;28;19924;-72
2021/09/23 10:57:23;;;;;;;;;;;;;;;;;;5094904;28;19924;-73
2021/09/23 10:59:49;;;;;;;;;;;;;;;;;;5094346;28;19930;-72
2021/09/23 11:02:16;;;;;;;;;;;;;;;;;;5094755;28;19939;-72
2021/09/23 11:04:42;;;;;;;;;;;;;;;;;;5094466;28;19924;-72
2021/09/23 11:07:08;;;;;;;;;;;;;;;;;;5094329;28;19924;-73
2021/09/23 11:09:35;;;;;;;;;;;;;;;;;;5094380;28;19931;-73
2021/09/23 11:12:03;;;;;;;;;;;;;;;;;;5094609;28;19931;-73
2021/09/23 11:14:30;;;;;;;;;;;;;;;;;;5094172;28;19942;-73
2021/09/23 11:16:57;;;;;;;;;;;;;;;;;;5094529;28;19931;-72
2021/09/23 11:19:23;;;;;;;;;;;;;;;;;;5093971;28;19924;-72
2021/09/23 11:21:50;;;;;;;;;;;;;;;;;;5093733;28;19928;-72
2021/09/23 11:24:16;;;;;;;;;;;;;;;;;;5093925;28;19924;-72
2021/09/23 11:26:42;;;;;;;;;;;;;;;;;;5094124;28;19924;-72
2021/09/23 11:29:08;;;;;;;;;;;;;;;;;;5093791;28;19924;-72
2021/09/23 11:31:35;;;;;;;;;;;;;;;;;;5094014;28;19924;-72
2021/09/23 11:34:01;;;;;;;;;;;;;;;;;;5094154;28;19928;-72
2021/09/23 11:36:29;;;;;;;;;;;;;;;;;;5093086;28;20210;-73
2021/09/23 11:38:56;;;;;;;;;;;;;;;;;;5093770;28;20034;-72
2021/09/23 11:41:22;;;;;;;;;;;;;;;;;;5094070;28;19970;-73
2021/09/23 11:43:48;;;;;;;;;;;;;;;;;;5093340;28;20294;-71
2021/09/23 11:46:15;;;;;;;;;;;;;;;;;;5093567;28;19924;-71
2021/09/23 11:48:41;;;;;;;;;;;;;;;;;;5093792;28;19930;-72
2021/09/23 11:51:10;;;;;;;;;;;;;;;;;;5093567;28;20467;-72
2021/09/23 11:53:37;;;;;;;;;;;;;;;;;;5093314;28;19942;-70
2021/09/23 11:56:03;;;;;;;;;;;;;;;;;;5093513;28;19974;-72
2021/09/23 11:58:29;;;;;;;;;;;;;;;;;;5093630;28;19942;-72
2021/09/23 12:00:56;;;;;;;;;;;;;;;;;;5093408;28;19950;-72
2021/09/23 12:03:22;;;;;;;;;;;;;;;;;;5093554;28;19924;-72
2021/09/23 12:05:48;;;;;;;;;;;;;;;;;;5092945;28;20298;-72
2021/09/23 12:08:15;;;;;;;;;;;;;;;;;;5093223;28;19924;-72
2021/09/23 12:10:41;;;;;;;;;;;;;;;;;;5093257;28;19931;-71
2021/09/23 12:13:08;;;;;;;;;;;;;;;;;;5093199;28;20282;-71
2021/09/23 12:15:34;;;;;;;;;;;;;;;;;;5093232;28;19931;-71
2021/09/23 12:18:02;;;;;;;;;;;;;;;;;;5093167;28;20384;-72
2021/09/23 12:20:28;;;;;;;;;;;;;;;;;;5092859;28;19978;-72
2021/09/23 12:22:54;;;;;;;;;;;;;;;;;;5092681;28;19924;-71
2021/09/23 12:25:21;;;;;;;;;;;;;;;;;;5092861;28;19930;-72
2021/09/23 12:27:47;;;;;;;;;;;;;;;;;;5092776;28;19924;-72
2021/09/23 12:30:13;;;;;;;;;;;;;;;;;;5092943;28;19961;-72
2021/09/23 12:32:41;;;;;;;;;;;;;;;;;;5091620;28;19939;-73
2021/09/23 12:35:07;;;;;;;;;;;;;;;;;;5093054;28;19924;-71
2021/09/23 12:37:33;;;;;;;;;;;;;;;;;;5092877;28;19924;-71
2021/09/23 12:39:59;;;;;;;;;;;;;;;;;;5092651;28;19928;-72
2021/09/23 12:42:26;;;;;;;;;;;;;;;;;;5093009;28;19930;-71
2021/09/23 12:44:52;;;;;;;;;;;;;;;;;;5092353;28;19967;-71
2021/09/23 12:47:19;;;;;;;;;;;;;;;;;;5092602;28;19924;-70
2021/09/23 12:49:46;;;;;;;;;;;;;;;;;;5092380;28;19932;-72
2021/09/23 12:52:12;;;;;;;;;;;;;;;;;;5092569;28;20379;-72
2021/09/23 12:54:38;;;;;;;;;;;;;;;;;;5092356;28;20340;-71
2021/09/23 12:57:04;;;;;;;;;;;;;;;;;;5092455;28;19924;-71
2021/09/23 12:59:31;;;;;;;;;;;;;;;;;;5092670;28;19942;-72
2021/09/23 13:01:57;;;;;;;;;;;;;;;;;;5092548;28;20366;-72
2021/09/23 13:04:23;;;;;;;;;;;;;;;;;;5092435;28;19924;-73
2021/09/23 13:06:50;;;;;;;;;;;;;;;;;;5092429;28;19934;-72
2021/09/23 13:09:16;;;;;;;;;;;;;;;;;;5092687;28;19924;-72
2021/09/23 13:11:42;;;;;;;;;;;;;;;;;;5092264;28;19924;-72
2021/09/23 13:14:09;;;;;;;;;;;;;;;;;;5092301;28;19924;-72
2021/09/23 13:16:35;;;;;;;;;;;;;;;;;;5092190;28;20302;-72
2021/09/23 13:19:01;;;;;;;;;;;;;;;;;;5092355;28;19938;-72
2021/09/23 13:21:27;;;;;;;;;;;;;;;;;;5092159;28;19925;-72
2021/09/23 13:23:54;;;;;;;;;;;;;;;;;;5092035;28;20007;-72
2021/09/23 13:26:21;;;;;;;;;;;;;;;;;;5092335;28;19995;-72
2021/09/23 13:28:48;;;;;;;;;;;;;;;;;;5092621;28;19924;-72
2021/09/23 13:31:14;;;;;;;;;;;;;;;;;;5092691;28;19924;-71
2021/09/23 13:33:41;;;;;;;;;;;;;;;;;;5092993;28;19928;-73
2021/09/23 13:36:07;;;;;;;;;;;;;;;;;;5093518;28;20023;-72
2021/09/23 13:38:34;;;;;;;;;;;;;;;;;;5092957;28;19946;-71
2021/09/23 13:41:00;;;;;;;;;;;;;;;;;;5114451;28;19926;-73
2021/09/23 13:43:26;;;;;;;;;;;;;;;;;;5118688;28;19976;-72
2021/09/23 13:45:52;;;;;;;;;;;;;;;;;;5110720;28;19930;-72
2021/09/23 13:48:19;;;;;;;;;;;;;;;;;;5097203;28;19924;-72
2021/09/23 13:50:45;;;;;;;;;;;;;;;;;;5095766;28;20019;-72
2021/09/23 13:53:11;;;;;;;;;;;;;;;;;;5096260;28;19931;-71
2021/09/23 13:55:38;;;;;;;;;;;;;;;;;;5095643;28;20526;-71
2021/09/23 13:58:04;;;;;;;;;;;;;;;;;;5095782;28;19924;-71
2021/09/23 14:00:32;;;;;;;;;;;;;;;;;;5095887;28;19928;-72
2021/09/23 14:02:58;;;;;;;;;;;;;;;;;;5095995;28;20015;-72
2021/09/23 14:05:24;;;;;;;;;;;;;;;;;;5095591;28;20392;-72
2021/09/23 14:07:51;;;;;;;;;;;;;;;;;;5095571;28;19928;-72
2021/09/23 14:10:17;;;;;;;;;;;;;;;;;;5095853;28;19924;-72
2021/09/23 14:12:43;;;;;;;;;;;;;;;;;;5095239;28;20382;-71
2021/09/23 14:15:10;;;;;;;;;;;;;;;;;;5095396;28;19924;-72
2021/09/23 14:17:36;;;;;;;;;;;;;;;;;;5095533;28;20058;-71
2021/09/23 14:20:02;;;;;;;;;;;;;;;;;;5095687;28;20019;-72
2021/09/23 14:22:29;;;;;;;;;;;;;;;;;;5095205;28;19924;-72
2021/09/23 14:24:55;;;;;;;;;;;;;;;;;;5094731;28;20324;-71
2021/09/23 14:27:22;;;;;;;;;;;;;;;;;;5095027;28;19924;-72
2021/09/23 14:29:48;;;;;;;;;;;;;;;;;;5095211;28;19924;-72
2021/09/23 14:32:14;;;;;;;;;;;;;;;;;;5095460;28;20313;-72
2021/09/23 14:34:41;;;;;;;;;;;;;;;;;;5094790;28;19928;-71
2021/09/23 14:37:07;;;;;;;;;;;;;;;;;;5095253;28;19924;-71
2021/09/23 14:39:34;;;;;;;;;;;;;;;;;;5094773;28;20326;-71
2021/09/23 14:42:00;;;;;;;;;;;;;;;;;;5094850;28;19934;-72
2021/09/23 14:44:26;;;;;;;;;;;;;;;;;;5095122;28;19931;-71
2021/09/23 14:46:53;;;;;;;;;;;;;;;;;;5094608;28;20388;-72
2021/09/23 14:49:19;;;;;;;;;;;;;;;;;;5094668;28;20291;-72
2021/09/23 14:51:46;;;;;;;;;;;;;;;;;;5094850;28;19928;-72
2021/09/23 14:54:12;;;;;;;;;;;;;;;;;;5094305;28;19924;-77
2021/09/23 14:56:38;;;;;;;;;;;;;;;;;;5094070;28;19936;-72
2021/09/23 14:59:05;;;;;;;;;;;;;;;;;;5094921;28;19925;-73
2021/09/23 15:01:31;;;;;;;;;;;;;;;;;;5094422;28;19928;-77
2021/09/23 15:03:57;;;;;;;;;;;;;;;;;;5094356;28;20283;-77
2021/09/23 15:06:23;;;;;;;;;;;;;;;;;;5094550;28;19930;-78
2021/09/23 15:08:50;;;;;;;;;;;;;;;;;;5094465;28;19932;-77
2021/09/23 15:11:16;;;;;;;;;;;;;;;;;;5094383;28;20306;-78
2021/09/23 15:13:42;;;;;;;;;;;;;;;;;;5094168;28;19925;-76
2021/09/23 15:16:09;;;;;;;;;;;;;;;;;;5094403;28;20026;-77
2021/09/23 15:18:36;;;;;;;;;;;;;;;;;;5093977;28;19946;-77
2021/09/23 15:21:02;;;;;;;;;;;;;;;;;;5094503;28;19924;-77
2021/09/23 15:23:28;;;;;;;;;;;;;;;;;;5094323;28;19930;-77
2021/09/23 15:25:54;;;;;;;;;;;;;;;;;;5093713;28;19930;-78
2021/09/23 15:28:21;;;;;;;;;;;;;;;;;;5094192;28;19935;-77
2021/09/23 15:30:47;;;;;;;;;;;;;;;;;;5094029;28;19924;-78
2021/09/23 15:33:13;;;;;;;;;;;;;;;;;;5093974;28;20305;-77
2021/09/23 15:35:40;;;;;;;;;;;;;;;;;;5093634;28;19924;-77
2021/09/23 15:38:06;;;;;;;;;;;;;;;;;;5094005;28;19924;-78
2021/09/23 15:40:32;;;;;;;;;;;;;;;;;;5093871;28;19924;-79
2021/09/23 15:42:59;;;;;;;;;;;;;;;;;;5093819;28;19924;-79
2021/09/23 15:45:25;;;;;;;;;;;;;;;;;;5094015;28;19932;-78
2021/09/23 15:47:51;;;;;;;;;;;;;;;;;;5094213;28;19932;-80
2021/09/23 15:50:17;;;;;;;;;;;;;;;;;;5094126;28;19924;-78
2021/09/23 15:52:44;;;;;;;;;;;;;;;;;;5093709;28;19924;-79
2021/09/23 15:55:10;;;;;;;;;;;;;;;;;;5093760;28;20029;-78
2021/09/23 15:57:36;;;;;;;;;;;;;;;;;;5093183;28;19924;-79
2021/09/23 16:00:03;;;;;;;;;;;;;;;;;;5093501;28;19931;-77
2021/09/23 16:02:29;;;;;;;;;;;;;;;;;;5093647;28;19947;-77
2021/09/23 16:04:55;;;;;;;;;;;;;;;;;;5092930;28;19924;-76
2021/09/23 16:07:22;;;;;;;;;;;;;;;;;;5093207;28;19934;-77
2021/09/23 16:09:48;;;;;;;;;;;;;;;;;;5092737;28;20382;-77
2021/09/23 16:12:15;;;;;;;;;;;;;;;;;;5100473;28;19924;-77
2021/09/23 16:14:41;;;;;;;;;;;;;;;;;;5105505;28;19924;-78
2021/09/23 16:17:07;;;;;;;;;;;;;;;;;;5092933;28;19924;-78
2021/09/23 16:19:33;;;;;;;;;;;;;;;;;;5092805;28;20006;-78
2021/09/23 16:22:00;;;;;;;;;;;;;;;;;;5092902;28;19924;-79
2021/09/23 16:24:26;;;;;;;;;;;;;;;;;;5092755;28;19931;-79
2021/09/23 16:26:52;;;;;;;;;;;;;;;;;;5092686;28;19931;-78
2021/09/23 16:29:19;;;;;;;;;;;;;;;;;;5092783;28;19924;-78
2021/09/23 16:31:45;;;;;;;;;;;;;;;;;;5092769;28;19924;-77
2021/09/23 16:34:11;;;;;;;;;;;;;;;;;;5092835;28;20402;-78
2021/09/23 16:36:39;;;;;;;;;;;;;;;;;;5092434;28;19930;-78
2021/09/23 16:39:05;;;;;;;;;;;;;;;;;;5093058;28;19924;-78